createdAt,value
2023-03-30T00:00:18.470Z,9.61
2023-03-30T00:03:04.865Z,9.57
2023-03-30T00:05:56.908Z,9.55
2023-03-30T00:08:42.727Z,9.50
2023-03-30T00:11:28.377Z,9.49
2023-03-30T00:14:17.940Z,9.44
2023-03-30T00:17:05.283Z,9.45
2023-03-30T00:19:50.643Z,9.44
2023-03-30T00:22:36.271Z,9.41
2023-03-30T00:25:23.402Z,9.38
2023-03-30T00:28:08.594Z,9.37
2023-03-30T00:30:54.069Z,9.35
2023-03-30T00:33:46.572Z,9.35
2023-03-30T00:36:37.149Z,9.35
2023-03-30T00:39:23.204Z,9.34
2023-03-30T00:42:15.603Z,9.34
2023-03-30T00:45:07.418Z,9.34
2023-03-30T00:48:01.936Z,9.35
2023-03-30T00:50:58.778Z,9.35
2023-03-30T00:53:51.036Z,9.33
2023-03-30T00:56:36.745Z,9.33
2023-03-30T00:59:22.110Z,9.34
2023-03-30T01:02:08.470Z,9.33
2023-03-30T01:04:57.571Z,9.34
2023-03-30T01:07:46.480Z,9.34
2023-03-30T01:10:32.027Z,9.34
2023-03-30T01:13:19.871Z,9.32
2023-03-30T01:16:19.236Z,9.31
2023-03-30T01:19:23.764Z,9.30
2023-03-30T01:22:18.284Z,9.29
2023-03-30T01:25:15.264Z,9.27
2023-03-30T01:28:32.996Z,9.27
2023-03-30T01:31:48.364Z,9.23
2023-03-30T01:34:49.685Z,9.20
2023-03-30T01:37:50.387Z,9.14
2023-03-30T01:40:51.117Z,9.12
2023-03-30T01:43:39.385Z,9.12
2023-03-30T01:46:31.682Z,9.08
2023-03-30T01:49:32.333Z,9.09
2023-03-30T01:52:31.914Z,9.02
2023-03-30T01:55:25.343Z,8.97
2023-03-30T01:58:10.512Z,8.95
2023-03-30T02:00:57.995Z,8.94
2023-03-30T02:03:48.565Z,8.90
2023-03-30T02:06:40.836Z,8.86
2023-03-30T02:09:29.356Z,8.86
2023-03-30T02:12:14.799Z,8.82
2023-03-30T02:15:07.755Z,8.81
2023-03-30T02:17:53.583Z,8.72
2023-03-30T02:20:39.799Z,8.70
2023-03-30T02:23:30.136Z,8.64
2023-03-30T02:26:16.156Z,8.54
2023-03-30T02:29:04.192Z,8.47
2023-03-30T02:31:53.112Z,8.45
2023-03-30T02:34:53.607Z,8.42
2023-03-30T02:38:01.681Z,8.37
2023-03-30T02:41:03.820Z,8.32
2023-03-30T02:43:55.473Z,8.28
2023-03-30T02:46:59.609Z,8.22
2023-03-30T02:50:00.342Z,8.14
2023-03-30T02:52:57.439Z,8.09
2023-03-30T02:56:06.068Z,8.04
2023-03-30T02:59:17.484Z,8.05
2023-03-30T03:02:37.480Z,8.04
2023-03-30T03:05:37.100Z,7.99
2023-03-30T03:08:34.697Z,7.94
2023-03-30T03:11:21.916Z,7.89
2023-03-30T03:14:07.986Z,7.87
2023-03-30T03:16:54.857Z,7.79
2023-03-30T03:19:43.269Z,7.74
2023-03-30T03:22:29.047Z,7.74
2023-03-30T03:25:15.563Z,7.72
2023-03-30T03:28:11.488Z,7.64
2023-03-30T03:31:14.153Z,7.59
2023-03-30T03:33:59.547Z,7.53
2023-03-30T03:37:03.518Z,7.58
2023-03-30T03:39:51.281Z,7.54
2023-03-30T03:42:36.807Z,7.48
2023-03-30T03:45:30.390Z,7.45
2023-03-30T03:48:20.409Z,7.42
2023-03-30T03:51:08.441Z,7.34
2023-03-30T03:53:55.869Z,7.25
2023-03-30T03:56:41.720Z,7.25
2023-03-30T03:59:28.151Z,7.31
2023-03-30T04:02:13.860Z,7.35
2023-03-30T04:04:59.705Z,7.32
2023-03-30T04:07:48.232Z,7.31
2023-03-30T04:10:33.947Z,7.32
2023-03-30T04:13:41.718Z,7.30
2023-03-30T04:16:34.877Z,7.29
2023-03-30T04:19:59.185Z,7.27
2023-03-30T04:23:02.016Z,7.27
2023-03-30T04:26:10.424Z,7.16
2023-03-30T04:29:24.638Z,6.89
2023-03-30T04:32:27.200Z,6.81
2023-03-30T04:35:33.393Z,6.66
2023-03-30T04:38:28.211Z,6.57
2023-03-30T04:41:14.257Z,6.65
2023-03-30T04:44:20.631Z,6.61
2023-03-30T04:47:46.171Z,6.47
2023-03-30T04:50:52.068Z,6.34
2023-03-30T04:53:58.796Z,6.25
2023-03-30T04:57:04.427Z,6.18
2023-03-30T05:00:17.573Z,6.06
2023-03-30T05:03:23.409Z,5.93
2023-03-30T05:06:27.263Z,5.81
2023-03-30T05:09:33.252Z,5.80
2023-03-30T05:12:27.543Z,5.81
2023-03-30T05:15:27.476Z,5.79
2023-03-30T05:18:39.383Z,5.74
2023-03-30T05:21:41.569Z,5.64
2023-03-30T05:24:33.169Z,5.56
2023-03-30T05:27:34.240Z,5.53
2023-03-30T05:30:42.349Z,5.51
2023-03-30T05:33:52.153Z,5.51
2023-03-30T05:36:55.480Z,5.52
2023-03-30T05:39:53.625Z,5.47
2023-03-30T05:43:11.203Z,5.48
2023-03-30T05:46:08.817Z,5.42
2023-03-30T05:49:03.628Z,5.33
2023-03-30T05:52:09.018Z,5.30
2023-03-30T05:55:13.698Z,5.23
2023-03-30T05:58:19.193Z,5.12
2023-03-30T06:01:20.934Z,5.02
2023-03-30T06:04:08.255Z,5.09
2023-03-30T06:06:54.658Z,4.99
2023-03-30T06:09:40.868Z,4.96
2023-03-30T06:12:39.398Z,4.97
2023-03-30T06:15:29.716Z,4.98
2023-03-30T06:18:27.489Z,4.91
2023-03-30T06:21:25.326Z,4.92
2023-03-30T06:24:33.697Z,5.03
2023-03-30T06:27:19.556Z,5.09
2023-03-30T06:30:05.395Z,5.14
2023-03-30T06:32:51.325Z,5.26
2023-03-30T06:35:49.889Z,5.61
2023-03-30T06:38:37.909Z,5.95
2023-03-30T06:41:23.311Z,6.27
2023-03-30T06:44:10.447Z,6.72
2023-03-30T06:46:58.223Z,7.22
2023-03-30T06:49:43.710Z,7.59
2023-03-30T06:52:48.609Z,7.81
2023-03-30T06:55:34.216Z,8.05
2023-03-30T06:58:20.124Z,8.20
2023-03-30T07:01:10.647Z,8.32
2023-03-30T07:04:19.631Z,8.37
2023-03-30T07:07:25.409Z,8.35
2023-03-30T07:10:11.557Z,8.38
2023-03-30T07:12:58.045Z,8.43
2023-03-30T07:15:45.799Z,8.47
2023-03-30T07:18:31.575Z,8.55
2023-03-30T07:21:17.190Z,8.74
2023-03-30T07:24:02.717Z,8.98
2023-03-30T07:26:52.932Z,9.19
2023-03-30T07:29:39.462Z,9.35
2023-03-30T07:32:26.205Z,9.42
2023-03-30T07:35:12.131Z,9.47
2023-03-30T07:38:03.219Z,9.51
2023-03-30T07:40:53.357Z,9.53
2023-03-30T07:43:40.828Z,9.61
2023-03-30T07:46:26.432Z,9.68
2023-03-30T07:49:13.639Z,9.78
2023-03-30T07:51:59.693Z,9.87
2023-03-30T07:54:57.268Z,9.93
2023-03-30T07:57:52.623Z,9.97
2023-03-30T08:00:38.500Z,10.04
2023-03-30T08:03:45.281Z,10.12
2023-03-30T08:06:31.229Z,10.16
2023-03-30T08:09:18.025Z,10.23
2023-03-30T08:12:04.222Z,10.22
2023-03-30T08:14:49.940Z,10.22
2023-03-30T08:17:35.344Z,10.30
2023-03-30T08:20:20.740Z,10.36
2023-03-30T08:23:06.959Z,10.36
2023-03-30T08:25:56.451Z,10.40
2023-03-30T08:28:42.065Z,10.45
2023-03-30T08:31:27.445Z,10.50
2023-03-30T08:34:12.766Z,10.52
2023-03-30T08:36:58.280Z,10.54
2023-03-30T08:39:43.693Z,10.61
2023-03-30T08:43:06.580Z,10.71
2023-03-30T08:45:53.104Z,10.93
2023-03-30T08:48:40.097Z,11.05
2023-03-30T08:51:29.122Z,11.05
2023-03-30T08:54:21.169Z,11.11
2023-03-30T08:57:32.327Z,11.24
2023-03-30T09:00:34.131Z,11.30
2023-03-30T09:03:29.310Z,11.31
2023-03-30T09:06:44.826Z,11.25
2023-03-30T09:09:32.324Z,11.26
2023-03-30T09:12:38.461Z,11.47
2023-03-30T09:15:32.255Z,11.57
2023-03-30T09:18:31.320Z,11.70
2023-03-30T09:21:21.527Z,11.67
2023-03-30T09:24:16.102Z,11.73
2023-03-30T09:27:28.115Z,12.08
2023-03-30T09:30:30.171Z,12.53
2023-03-30T09:33:41.670Z,12.84
2023-03-30T09:36:36.285Z,13.02
2023-03-30T09:39:25.296Z,13.03
2023-03-30T09:42:36.556Z,13.17
2023-03-30T09:45:34.413Z,13.18
2023-03-30T09:48:19.939Z,12.99
2023-03-30T09:51:18.048Z,13.03
2023-03-30T09:54:06.530Z,13.16
2023-03-30T09:56:54.546Z,13.32
2023-03-30T09:59:42.068Z,13.46
2023-03-30T10:02:31.362Z,13.61
2023-03-30T10:05:18.348Z,13.65
2023-03-30T10:08:21.782Z,13.73
2023-03-30T10:11:10.198Z,13.91
2023-03-30T10:13:57.806Z,13.86
2023-03-30T10:16:44.337Z,13.89
2023-03-30T10:19:30.457Z,13.99
2023-03-30T10:22:18.962Z,14.09
2023-03-30T10:25:18.042Z,14.16
2023-03-30T10:28:06.681Z,14.09
2023-03-30T10:30:56.857Z,14.06
2023-03-30T10:33:45.075Z,14.14
2023-03-30T10:36:35.099Z,13.96
2023-03-30T10:39:29.528Z,13.86
2023-03-30T10:42:23.879Z,13.87
2023-03-30T10:45:18.802Z,13.58
2023-03-30T10:48:29.901Z,13.30
2023-03-30T10:51:30.541Z,13.15
2023-03-30T10:54:32.354Z,13.10
2023-03-30T10:57:21.688Z,13.03
2023-03-30T11:00:22.835Z,12.94
2023-03-30T11:03:32.000Z,12.90
2023-03-30T11:06:24.071Z,12.94
2023-03-30T11:09:16.401Z,13.14
2023-03-30T11:12:13.988Z,13.49
2023-03-30T11:15:07.304Z,13.95
2023-03-30T11:18:11.116Z,14.34
2023-03-30T11:21:19.783Z,14.47
2023-03-30T11:24:34.146Z,14.71
2023-03-30T11:27:25.546Z,14.85
2023-03-30T11:30:17.635Z,14.93
2023-03-30T11:33:12.782Z,14.91
2023-03-30T11:36:05.438Z,15.03
2023-03-30T11:39:04.826Z,15.16
2023-03-30T11:42:03.901Z,15.15
2023-03-30T11:44:49.573Z,15.21
2023-03-30T11:48:01.878Z,15.35
2023-03-30T11:51:13.983Z,15.44
2023-03-30T11:54:24.428Z,15.41
2023-03-30T11:57:33.362Z,15.48
2023-03-30T12:00:38.403Z,15.44
2023-03-30T12:03:27.136Z,15.55
2023-03-30T12:06:32.399Z,15.52
2023-03-30T12:09:38.957Z,15.51
2023-03-30T12:12:34.923Z,15.51
2023-03-30T12:15:22.348Z,15.76
2023-03-30T12:18:29.591Z,16.11
2023-03-30T12:21:27.473Z,16.50
2023-03-30T12:24:27.312Z,16.67
2023-03-30T12:27:12.687Z,16.45
2023-03-30T12:30:23.481Z,16.78
2023-03-30T12:33:18.447Z,17.17
2023-03-30T12:36:40.894Z,17.41
2023-03-30T12:39:31.164Z,16.92
2023-03-30T12:42:34.816Z,16.21
2023-03-30T12:45:33.318Z,15.85
2023-03-30T12:48:43.934Z,15.51
2023-03-30T12:51:52.861Z,15.27
2023-03-30T12:55:03.739Z,15.17
2023-03-30T12:57:52.177Z,14.98
2023-03-30T13:01:05.712Z,14.83
2023-03-30T13:03:54.068Z,14.82
2023-03-30T13:06:52.952Z,15.11
2023-03-30T13:09:56.707Z,15.34
2023-03-30T13:12:42.744Z,15.50
2023-03-30T13:15:51.918Z,15.55
2023-03-30T13:18:53.307Z,15.40
2023-03-30T13:21:54.891Z,15.11
2023-03-30T13:24:43.642Z,14.97
2023-03-30T13:27:33.238Z,14.68
2023-03-30T13:30:19.519Z,14.13
2023-03-30T13:33:24.262Z,13.73
2023-03-30T13:36:16.095Z,13.28
2023-03-30T13:39:46.613Z,12.87
2023-03-30T13:42:37.784Z,12.63
2023-03-30T13:45:36.360Z,12.57
2023-03-30T13:48:50.970Z,12.65
2023-03-30T13:51:39.188Z,12.78
2023-03-30T13:54:31.811Z,13.15
2023-03-30T13:57:21.114Z,13.55
2023-03-30T14:00:23.778Z,14.12
2023-03-30T14:03:27.538Z,14.65
2023-03-30T14:06:13.574Z,15.10
2023-03-30T14:09:21.604Z,15.85
2023-03-30T14:12:07.828Z,16.52
2023-03-30T14:14:53.645Z,16.92
2023-03-30T14:17:39.341Z,16.99
2023-03-30T14:20:43.450Z,16.79
2023-03-30T14:23:28.908Z,16.81
2023-03-30T14:26:32.292Z,17.21
2023-03-30T14:29:31.340Z,17.47
2023-03-30T14:32:23.548Z,17.65
2023-03-30T14:35:09.158Z,17.93
2023-03-30T14:37:57.205Z,18.18
2023-03-30T14:40:48.064Z,18.05
2023-03-30T14:43:35.158Z,18.11
2023-03-30T14:46:24.504Z,18.29
2023-03-30T14:49:31.927Z,18.20
2023-03-30T14:52:23.513Z,17.99
2023-03-30T14:55:18.879Z,18.06
2023-03-30T14:58:06.417Z,18.34
2023-03-30T15:01:09.253Z,18.00
2023-03-30T15:03:55.176Z,17.86
2023-03-30T15:06:41.207Z,18.12
2023-03-30T15:09:27.144Z,18.22
2023-03-30T15:12:24.334Z,18.28
2023-03-30T15:15:14.258Z,18.00
2023-03-30T15:18:01.944Z,18.11
2023-03-30T15:20:48.694Z,18.14
2023-03-30T15:23:38.325Z,18.44
2023-03-30T15:26:26.744Z,18.20
2023-03-30T15:29:16.417Z,17.96
2023-03-30T15:32:11.505Z,17.98
2023-03-30T15:35:05.125Z,17.92
2023-03-30T15:37:59.932Z,17.85
2023-03-30T15:40:52.011Z,17.71
2023-03-30T15:43:38.432Z,17.41
2023-03-30T15:46:25.051Z,16.93
2023-03-30T15:49:14.520Z,16.60
2023-03-30T15:52:02.046Z,16.55
2023-03-30T15:54:55.351Z,16.63
2023-03-30T15:57:46.105Z,16.78
2023-03-30T16:00:34.815Z,16.33
2023-03-30T16:04:00.253Z,15.57
2023-03-30T16:06:47.486Z,15.32
2023-03-30T16:09:33.389Z,15.17
2023-03-30T16:12:22.474Z,15.11
2023-03-30T16:15:18.517Z,15.06
2023-03-30T16:18:04.206Z,15.14
2023-03-30T16:20:50.044Z,15.15
2023-03-30T16:23:35.639Z,15.12
2023-03-30T16:26:21.081Z,15.18
2023-03-30T16:29:20.383Z,15.32
2023-03-30T16:32:06.109Z,15.33
2023-03-30T16:34:53.727Z,15.09
2023-03-30T16:37:39.815Z,14.99
2023-03-30T16:40:31.409Z,15.10
2023-03-30T16:43:16.544Z,15.28
2023-03-30T16:46:02.288Z,15.30
2023-03-30T16:48:47.986Z,15.35
2023-03-30T16:51:33.411Z,15.56
2023-03-30T16:54:30.190Z,15.86
2023-03-30T16:57:16.883Z,15.94
2023-03-30T17:00:02.967Z,15.94
2023-03-30T17:02:48.708Z,15.88
2023-03-30T17:05:34.767Z,15.74
2023-03-30T17:08:23.556Z,15.46
2023-03-30T17:11:10.935Z,15.39
2023-03-30T17:13:56.449Z,15.02
2023-03-30T17:16:42.314Z,14.69
2023-03-30T17:19:28.080Z,14.34
2023-03-30T17:22:13.756Z,14.04
2023-03-30T17:24:59.248Z,13.84
2023-03-30T17:27:44.751Z,13.68
2023-03-30T17:30:35.041Z,13.55
2023-03-30T17:33:20.864Z,13.42
2023-03-30T17:36:12.456Z,13.31
2023-03-30T17:38:59.619Z,13.25
2023-03-30T17:41:44.919Z,13.14
2023-03-30T17:44:30.028Z,13.03
2023-03-30T17:47:15.693Z,12.94
2023-03-30T17:50:01.150Z,12.84
2023-03-30T17:52:47.420Z,12.75
2023-03-30T17:55:33.422Z,12.69
2023-03-30T17:58:25.519Z,12.55
2023-03-30T18:01:12.949Z,12.51
2023-03-30T18:03:58.565Z,12.44
2023-03-30T18:06:43.855Z,12.35
2023-03-30T18:09:29.137Z,12.27
2023-03-30T18:12:14.646Z,12.17
2023-03-30T18:15:00.031Z,12.06
2023-03-30T18:17:45.704Z,11.97
2023-03-30T18:20:37.357Z,11.84
2023-03-30T18:23:23.423Z,11.71
2023-03-30T18:26:13.037Z,11.60
2023-03-30T18:28:58.983Z,11.45
2023-03-30T18:31:44.676Z,11.34
2023-03-30T18:34:29.738Z,11.23
2023-03-30T18:37:15.041Z,11.19
2023-03-30T18:40:00.786Z,11.14
2023-03-30T18:42:46.468Z,11.05
2023-03-30T18:45:34.886Z,10.94
2023-03-30T18:48:21.764Z,10.90
2023-03-30T18:51:11.464Z,10.90
2023-03-30T18:53:57.914Z,10.86
2023-03-30T18:56:45.685Z,10.77
2023-03-30T18:59:31.258Z,10.77
2023-03-30T19:02:16.567Z,10.74
2023-03-30T19:05:02.049Z,10.76
2023-03-30T19:07:48.098Z,10.78
2023-03-30T19:10:37.410Z,10.80
2023-03-30T19:13:24.163Z,10.82
2023-03-30T19:16:10.432Z,10.83
2023-03-30T19:18:56.015Z,10.78
2023-03-30T19:21:43.190Z,10.72
2023-03-30T19:24:28.537Z,10.66
2023-03-30T19:27:13.872Z,10.58
2023-03-30T19:29:59.106Z,10.50
2023-03-30T19:32:46.136Z,10.43
2023-03-30T19:35:32.880Z,10.37
2023-03-30T19:38:18.161Z,10.32
2023-03-30T19:41:05.045Z,10.29
2023-03-30T19:43:51.021Z,10.25
2023-03-30T19:46:37.910Z,10.21
2023-03-30T19:49:23.512Z,10.16
2023-03-30T19:52:08.893Z,10.13
2023-03-30T19:54:54.300Z,10.08
2023-03-30T19:57:40.482Z,10.06
2023-03-30T20:00:26.125Z,10.05
2023-03-30T20:03:12.396Z,9.99
2023-03-30T20:05:57.937Z,9.94
2023-03-30T20:08:43.963Z,9.87
2023-03-30T20:11:29.690Z,9.81
2023-03-30T20:14:15.576Z,9.75
2023-03-30T20:17:01.923Z,9.70
2023-03-30T20:19:47.860Z,9.71
2023-03-30T20:22:38.347Z,9.68
2023-03-30T20:25:23.922Z,9.66
2023-03-30T20:28:09.403Z,9.67
2023-03-30T20:30:57.840Z,9.67
2023-03-30T20:33:43.361Z,9.67
2023-03-30T20:36:29.779Z,9.65
2023-03-30T20:39:16.848Z,9.60
2023-03-30T20:42:08.265Z,9.59
2023-03-30T20:44:54.360Z,9.55
2023-03-30T20:47:39.996Z,9.52
2023-03-30T20:50:25.558Z,9.51
2023-03-30T20:53:11.331Z,9.48
2023-03-30T20:55:58.024Z,9.45
2023-03-30T20:58:43.533Z,9.43
2023-03-30T21:01:29.533Z,9.38
2023-03-30T21:04:14.834Z,9.35
2023-03-30T21:07:00.983Z,9.35
2023-03-30T21:09:47.313Z,9.34
2023-03-30T21:12:32.897Z,9.34
2023-03-30T21:15:18.390Z,9.34
2023-03-30T21:18:04.066Z,9.30
2023-03-30T21:20:49.266Z,9.30
2023-03-30T21:23:34.996Z,9.29
2023-03-30T21:26:20.142Z,9.27
2023-03-30T21:29:06.048Z,9.27
2023-03-30T21:31:51.172Z,9.25
2023-03-30T21:34:36.587Z,9.24
2023-03-30T21:37:21.821Z,9.27
2023-03-30T21:40:08.782Z,9.24
2023-03-30T21:42:54.139Z,9.25
2023-03-30T21:45:39.337Z,9.22
2023-03-30T21:48:26.401Z,9.21
2023-03-30T21:51:14.707Z,9.16
2023-03-30T21:54:00.299Z,9.12
2023-03-30T21:56:46.198Z,9.13
2023-03-30T21:59:31.705Z,9.11
2023-03-30T22:02:17.100Z,9.09
2023-03-30T22:05:02.893Z,9.09
2023-03-30T22:07:48.591Z,9.07
2023-03-30T22:10:34.016Z,9.06
2023-03-30T22:13:19.649Z,9.04
2023-03-30T22:16:10.807Z,9.01
2023-03-30T22:18:56.486Z,9.02
2023-03-30T22:21:42.203Z,9.02
2023-03-30T22:24:27.568Z,9.01
2023-03-30T22:27:13.199Z,8.99
2023-03-30T22:29:59.454Z,8.97
2023-03-30T22:32:44.934Z,8.96
2023-03-30T22:35:30.213Z,8.95
2023-03-30T22:38:16.199Z,8.91
2023-03-30T22:41:07.857Z,8.93
2023-03-30T22:43:56.693Z,8.91
2023-03-30T22:46:42.337Z,8.87
2023-03-30T22:49:27.677Z,8.84
2023-03-30T22:52:13.111Z,8.81
2023-03-30T22:54:58.741Z,8.81
2023-03-30T22:57:44.601Z,8.79
2023-03-30T23:00:30.462Z,8.76
2023-03-30T23:03:15.943Z,8.74
2023-03-30T23:06:02.028Z,8.72
2023-03-30T23:08:48.697Z,8.72
2023-03-30T23:11:35.338Z,8.71
2023-03-30T23:14:21.924Z,8.69
2023-03-30T23:17:09.331Z,8.67
2023-03-30T23:19:54.673Z,8.66
2023-03-30T23:22:40.106Z,8.65
2023-03-30T23:25:26.628Z,8.65
2023-03-30T23:28:12.065Z,8.64
2023-03-30T23:31:00.782Z,8.65
2023-03-30T23:33:46.638Z,8.64
2023-03-30T23:36:32.097Z,8.65
2023-03-30T23:39:17.676Z,8.65
2023-03-30T23:42:02.877Z,8.65
2023-03-30T23:44:48.305Z,8.63
2023-03-30T23:47:34.191Z,8.64
2023-03-30T23:50:19.464Z,8.61
2023-03-30T23:53:05.124Z,8.62
2023-03-30T23:55:51.280Z,8.62
2023-03-30T23:58:36.803Z,8.61
